Time;durP1;ratioP1;P1;durP2;ratioP2;P2;SDS_P1;SDS_P2;PMS_P1;PMS_P2;Temp;Humidity;BMP_temperature;BMP_pressure;BME280_temperature;BME280_humidity;BME280_pressure;Samples;Min_cycle;Max_cycle;Signal;HPM_P1;HPM_P2
2021/08/16 00:01:32;;;;;;;9.13;7.57;;;;;;;24.59;56.47;99422.28;3373258;29;20101;-77
2021/08/16 00:03:13;;;;;;;9.83;7.17;;;;;;;24.56;56.07;99422.88;3375357;29;20501;-78
2021/08/16 00:04:54;;;;;;;9.63;7.57;;;;;;;24.52;56.67;99423.75;3376010;29;20100;-77
2021/08/16 00:06:35;;;;;;;9.30;6.53;;;;;;;24.52;56.67;99423.75;3367940;29;20456;-76
2021/08/16 00:08:15;;;;;;;10.77;7.40;;;;;;;24.49;56.60;99410.72;3374209;29;20041;-76
2021/08/16 00:09:56;;;;;;;8.00;6.87;;;;;;;24.50;57.21;99407.72;3376523;29;20051;-78
2021/08/16 00:11:39;;;;;;;8.93;7.37;;;;;;;24.54;57.08;99419.63;3375525;29;20071;-75
2021/08/16 00:13:20;;;;;;;10.68;7.40;;;;;;;24.54;57.17;99422.34;3375618;29;20055;-76
2021/08/16 00:15:01;;;;;;;8.70;7.65;;;;;;;24.52;56.78;99413.66;3377036;29;20104;-75
2021/08/16 00:16:42;;;;;;;11.63;7.90;;;;;;;24.43;56.77;99409.13;3374425;29;20501;-77
2021/08/16 00:18:23;;;;;;;10.50;7.07;;;;;;;24.39;56.99;99414.34;3367552;29;20079;-76
2021/08/16 00:20:04;;;;;;;12.17;7.07;;;;;;;24.32;56.72;99409.28;3375916;29;20363;-76
2021/08/16 00:21:45;;;;;;;9.30;7.47;;;;;;;24.26;57.22;99404.97;3371058;29;20052;-77
2021/08/16 00:23:26;;;;;;;9.63;8.13;;;;;;;24.33;57.39;99421.78;3369029;29;20116;-75
2021/08/16 00:25:14;;;;;;;10.88;7.20;;;;;;;24.36;57.40;99410.28;3374775;29;20048;-77
2021/08/16 00:26:55;;;;;;;12.17;7.43;;;;;;;24.41;57.72;99422.25;3370873;29;20059;-76
2021/08/16 00:28:35;;;;;;;12.77;7.77;;;;;;;24.43;57.71;99420.84;3369825;29;20052;-77
2021/08/16 00:30:16;;;;;;;10.90;7.40;;;;;;;24.46;57.69;99425.72;3370521;29;20047;-78
2021/08/16 00:31:57;;;;;;;9.13;6.67;;;;;;;24.48;57.76;99411.84;3374937;29;20051;-77
2021/08/16 00:33:38;;;;;;;8.63;7.73;;;;;;;24.51;57.43;99424.84;3371146;29;20045;-77
2021/08/16 00:35:19;;;;;;;9.23;6.57;;;;;;;24.48;57.32;99415.34;3371651;29;20051;-77
2021/08/16 00:36:59;;;;;;;12.13;7.27;;;;;;;24.42;56.79;99419.25;3371107;29;20508;-76
2021/08/16 00:38:40;;;;;;;11.23;8.33;;;;;;;24.36;57.22;99413.03;3363360;29;20503;-75
2021/08/16 00:40:21;;;;;;;10.27;7.13;;;;;;;24.34;57.21;99420.69;3371030;29;20044;-77
2021/08/16 00:42:01;;;;;;;10.47;7.10;;;;;;;24.32;57.19;99417.44;3374567;29;20473;-76
2021/08/16 00:43:42;;;;;;;8.77;7.60;;;;;;;24.29;57.51;99419.94;3371428;29;20141;-77
2021/08/16 00:45:25;;;;;;;9.43;7.15;;;;;;;24.22;57.81;99409.41;3372018;29;20115;-76
2021/08/16 00:47:06;;;;;;;8.02;7.00;;;;;;;24.20;57.49;99417.06;3363781;29;20136;-76
2021/08/16 00:48:46;;;;;;;10.47;6.77;;;;;;;24.16;57.35;99410.56;3370327;29;20037;-76
2021/08/16 00:50:27;;;;;;;10.33;6.93;;;;;;;24.17;57.94;99423.09;3371894;29;20048;-75
2021/08/16 00:52:08;;;;;;;9.73;6.53;;;;;;;24.14;58.28;99423.69;3374097;29;20044;-75
2021/08/16 00:53:48;;;;;;;13.13;7.33;;;;;;;24.15;57.82;99419.84;3369019;29;20083;-76
2021/08/16 00:55:29;;;;;;;9.80;7.37;;;;;;;24.17;57.97;99428.53;3371972;29;20036;-75
2021/08/16 00:57:10;;;;;;;9.97;6.80;;;;;;;24.18;57.99;99427.41;3365840;29;20052;-75
2021/08/16 00:58:51;;;;;;;8.50;6.40;;;;;;;24.19;57.55;99426.34;3376331;29;20370;-76
2021/08/16 01:00:31;;;;;;;11.03;8.23;;;;;;;24.19;57.67;99429.06;3365825;29;20036;-75
2021/08/16 01:02:12;;;;;;;11.27;7.23;;;;;;;24.13;57.67;99422.84;3369540;29;20108;-76
2021/08/16 01:03:53;;;;;;;8.47;6.70;;;;;;;24.10;58.05;99423.44;3375691;29;20047;-75
2021/08/16 01:05:34;;;;;;;8.03;7.13;;;;;;;24.07;58.36;99417.75;3375569;29;20048;-76
2021/08/16 01:07:14;;;;;;;10.80;6.53;;;;;;;24.06;58.44;99422.41;3373921;29;20454;-76
2021/08/16 01:08:55;;;;;;;14.57;7.67;;;;;;;24.06;57.60;99427.00;3370359;29;20535;-77
2021/08/16 01:10:36;;;;;;;11.33;7.53;;;;;;;24.06;57.91;99432.47;3375175;29;20051;-76
2021/08/16 01:12:17;;;;;;;9.23;6.83;;;;;;;24.01;58.00;99432.50;3371699;29;20812;-77
2021/08/16 01:13:57;;;;;;;9.93;7.10;;;;;;;23.99;57.95;99432.81;3364385;29;20074;-75
2021/08/16 01:15:39;;;;;;;8.85;7.38;;;;;;;24.00;58.18;99437.16;3372366;29;20056;-76
2021/08/16 01:17:20;;;;;;;8.37;6.73;;;;;;;24.03;58.21;99443.94;3374540;29;20068;-75
2021/08/16 01:19:00;;;;;;;9.37;7.10;;;;;;;24.03;57.96;99435.75;3369760;29;20044;-76
2021/08/16 01:20:41;;;;;;;10.57;7.17;;;;;;;24.01;57.87;99438.78;3374383;29;20095;-75
2021/08/16 01:22:22;;;;;;;8.87;7.80;;;;;;;24.00;57.99;99439.06;3373809;29;20049;-76
2021/08/16 01:24:03;;;;;;;10.07;6.95;;;;;;;23.99;58.40;99434.75;3375335;29;20127;-76
2021/08/16 01:25:47;;;;;;;11.77;7.90;;;;;;;23.97;58.52;99439.66;3363906;29;20176;-75
2021/08/16 01:27:27;;;;;;;9.50;6.82;;;;;;;23.98;58.36;99442.06;3370979;29;20049;-76
2021/08/16 01:29:19;;;;;;;13.17;7.53;;;;;;;24.00;58.62;99439.06;3370884;29;20064;-75
2021/08/16 01:31:02;;;;;;;12.82;7.85;;;;;;;23.98;58.64;99436.63;3369529;29;20119;-76
2021/08/16 01:32:43;;;;;;;12.65;7.68;;;;;;;23.97;58.65;99436.94;3374317;29;20216;-75
2021/08/16 01:34:24;;;;;;;11.18;7.22;;;;;;;23.92;58.50;99432.34;3375842;29;20100;-78
2021/08/16 01:36:06;;;;;;;10.40;7.30;;;;;;;23.90;58.16;99435.34;3373279;29;20044;-75
2021/08/16 01:37:47;;;;;;;13.23;7.10;;;;;;;23.91;58.28;99436.19;3375794;29;20084;-75
2021/08/16 01:39:28;;;;;;;12.50;6.80;;;;;;;23.90;58.32;99440.78;3368992;29;20036;-76
2021/08/16 01:41:09;;;;;;;13.83;7.43;;;;;;;23.91;58.49;99447.88;3370478;29;20539;-75
2021/08/16 01:42:49;;;;;;;10.23;7.03;;;;;;;23.92;58.74;99457.66;3375148;29;20041;-75
2021/08/16 01:44:30;;;;;;;10.30;6.20;;;;;;;23.95;58.30;99457.06;3372003;29;20034;-74
2021/08/16 01:46:11;;;;;;;11.60;7.90;;;;;;;23.96;58.29;99452.47;3369830;29;20201;-76
2021/08/16 01:47:51;;;;;;;13.13;7.57;;;;;;;23.95;58.45;99457.06;3369960;29;20055;-75
2021/08/16 01:49:32;;;;;;;10.60;7.10;;;;;;;23.93;58.50;99463.91;3371331;29;20041;-76
2021/08/16 01:51:13;;;;;;;11.20;7.67;;;;;;;23.91;58.56;99456.06;3370172;29;20500;-75
2021/08/16 01:52:53;;;;;;;15.03;7.07;;;;;;;23.89;58.54;99455.53;3374139;29;20053;-75
2021/08/16 01:54:36;;;;;;;10.53;8.17;;;;;;;23.89;58.51;99458.25;3374704;29;20100;-75
2021/08/16 01:56:19;;;;;;;12.95;8.05;;;;;;;23.91;58.47;99464.22;3375759;29;20044;-76
2021/08/16 01:58:00;;;;;;;12.57;7.32;;;;;;;23.91;58.75;99453.31;3374358;29;20077;-76
2021/08/16 01:59:41;;;;;;;11.07;6.50;;;;;;;23.90;58.81;99451.69;3374868;29;20585;-75
2021/08/16 02:01:23;;;;;;;11.80;7.70;;;;;;;23.92;58.51;99462.28;3373837;29;20670;-75
2021/08/16 02:03:04;;;;;;;10.13;7.90;;;;;;;23.92;58.54;99460.38;3374803;29;20107;-76
2021/08/16 02:04:47;;;;;;;9.75;7.78;;;;;;;23.87;58.88;99468.59;3369177;29;20131;-76
2021/08/16 02:06:28;;;;;;;10.80;7.20;;;;;;;23.86;58.60;99468.91;3366987;29;20040;-77
2021/08/16 02:08:09;;;;;;;11.23;7.73;;;;;;;23.84;58.68;99469.19;3366499;29;20097;-75
2021/08/16 02:09:49;;;;;;;10.40;8.20;;;;;;;23.84;58.81;99469.19;3377387;29;20085;-78
2021/08/16 02:11:30;;;;;;;8.73;7.37;;;;;;;23.85;58.78;99480.88;3375112;29;20408;-76
2021/08/16 02:13:11;;;;;;;11.63;8.77;;;;;;;23.87;58.79;99474.03;3376591;29;20052;-76
2021/08/16 02:14:52;;;;;;;15.47;7.90;;;;;;;23.86;58.59;99472.44;3372922;29;20047;-77
2021/08/16 02:16:32;;;;;;;13.03;7.53;;;;;;;23.90;58.56;99468.03;3376981;29;20044;-77
2021/08/16 02:18:13;;;;;;;10.63;7.50;;;;;;;23.93;58.52;99466.63;3375483;29;20041;-76
2021/08/16 02:19:54;;;;;;;13.67;7.70;;;;;;;23.88;58.20;99459.34;3376827;29;20049;-76
2021/08/16 02:21:34;;;;;;;13.27;6.37;;;;;;;23.95;58.47;99475.31;3371321;29;20690;-76
2021/08/16 02:23:15;;;;;;;14.60;7.50;;;;;;;23.94;58.31;99469.06;3374278;29;20052;-77
2021/08/16 02:24:56;;;;;;;17.63;8.57;;;;;;;23.94;58.21;99469.06;3372273;29;20576;-76
2021/08/16 02:26:36;;;;;;;14.33;8.57;;;;;;;23.93;58.31;99467.47;3373223;29;20052;-76
2021/08/16 02:28:18;;;;;;;13.20;7.63;;;;;;;23.88;58.14;99466.69;3373090;29;20096;-76
2021/08/16 02:29:59;;;;;;;12.47;8.47;;;;;;;23.81;58.41;99469.75;3373652;29;20036;-77
2021/08/16 02:31:40;;;;;;;11.23;7.27;;;;;;;23.79;58.77;99466.50;3374988;29;20045;-77
2021/08/16 02:33:20;;;;;;;9.00;6.90;;;;;;;23.78;58.90;99470.34;3377050;29;20570;-79
2021/08/16 02:35:01;;;;;;;12.53;6.93;;;;;;;23.83;58.97;99477.66;3378448;29;20505;-77
2021/08/16 02:36:42;;;;;;;10.70;7.27;;;;;;;23.87;58.77;99475.97;3379036;29;20056;-77
2021/08/16 02:38:22;;;;;;;9.17;7.50;;;;;;;23.91;58.85;99486.00;3377370;29;20136;-76
2021/08/16 02:40:04;;;;;;;12.43;7.67;;;;;;;23.93;58.65;99489.25;3377075;29;20041;-76
2021/08/16 02:41:45;;;;;;;12.23;9.05;;;;;;;23.95;58.16;99486.22;3375605;29;20500;-76
2021/08/16 02:43:28;;;;;;;14.43;8.50;;;;;;;23.95;57.89;99494.38;3375253;29;20055;-77
2021/08/16 02:45:09;;;;;;;16.50;8.32;;;;;;;23.94;58.22;99479.97;3373566;29;20045;-77
2021/08/16 02:46:50;;;;;;;12.18;7.25;;;;;;;23.94;58.22;99485.41;3376618;29;20056;-77
2021/08/16 02:48:31;;;;;;;15.23;7.77;;;;;;;23.97;58.37;99485.94;3370644;29;20033;-77
2021/08/16 02:50:12;;;;;;;18.83;8.10;;;;;;;23.95;58.40;99492.47;3367303;29;20184;-76
2021/08/16 02:51:53;;;;;;;12.52;8.07;;;;;;;23.93;58.16;99488.41;3371621;29;20040;-77
2021/08/16 02:53:33;;;;;;;12.70;7.63;;;;;;;23.92;58.64;99482.16;3376077;29;20040;-76
2021/08/16 02:55:14;;;;;;;13.77;8.03;;;;;;;23.95;58.62;99491.66;3367393;29;20053;-76
2021/08/16 02:56:56;;;;;;;13.25;7.88;;;;;;;23.95;58.28;99492.47;3372350;29;20048;-76
2021/08/16 02:58:37;;;;;;;12.50;7.47;;;;;;;23.97;58.29;99489.47;3369778;29;20063;-76
2021/08/16 03:00:17;;;;;;;14.67;9.07;;;;;;;23.95;58.15;99491.66;3382250;29;20045;-76
2021/08/16 03:01:58;;;;;;;11.53;8.20;;;;;;;23.94;58.20;99498.22;3372637;29;20049;-76
2021/08/16 03:03:39;;;;;;;14.40;8.70;;;;;;;23.97;58.36;99497.63;3373340;29;20107;-76
2021/08/16 03:05:20;;;;;;;19.40;8.40;;;;;;;23.99;58.46;99503.59;3366440;29;20079;-75
2021/08/16 03:07:03;;;;;;;17.03;8.00;;;;;;;23.98;58.25;99501.16;3375929;29;20049;-76
2021/08/16 03:08:44;;;;;;;15.00;8.00;;;;;;;23.96;58.37;99498.75;3377625;29;20049;-77
2021/08/16 03:10:25;;;;;;;13.43;8.23;;;;;;;23.93;58.30;99502.03;3375503;29;20135;-75
2021/08/16 03:12:07;;;;;;;11.33;7.97;;;;;;;23.87;58.38;99498.53;3373237;29;20081;-76
2021/08/16 03:13:48;;;;;;;11.88;7.90;;;;;;;23.91;58.39;99499.59;3375639;29;20049;-76
2021/08/16 03:15:28;;;;;;;9.40;7.23;;;;;;;23.89;58.22;99501.78;3376908;29;20122;-77
2021/08/16 03:17:09;;;;;;;10.17;7.57;;;;;;;23.85;58.58;99497.22;3375989;29;20044;-76
2021/08/16 03:18:50;;;;;;;9.23;7.67;;;;;;;23.85;58.48;99502.66;3370910;29;20055;-77
2021/08/16 03:20:31;;;;;;;10.90;6.77;;;;;;;23.86;58.58;99499.66;3375382;29;20048;-77
2021/08/16 03:22:11;;;;;;;10.97;7.07;;;;;;;23.91;58.40;99501.53;3374613;29;20139;-75
2021/08/16 03:23:52;;;;;;;12.53;7.50;;;;;;;23.95;58.46;99499.81;3374352;29;20116;-76
2021/08/16 03:25:33;;;;;;;11.10;7.40;;;;;;;24.04;57.98;99508.19;3370141;29;20045;-77
2021/08/16 03:27:13;;;;;;;10.10;6.83;;;;;;;24.10;58.09;99502.41;3377172;29;20127;-77
2021/08/16 03:28:54;;;;;;;10.47;7.70;;;;;;;24.16;57.93;99503.16;3378174;29;20048;-78
2021/08/16 03:30:35;;;;;;;10.17;7.37;;;;;;;24.22;58.01;99502.00;3377060;29;20044;-76
2021/08/16 03:32:15;;;;;;;10.40;7.07;;;;;;;24.27;57.44;99503.88;3375632;29;20047;-77
2021/08/16 03:33:56;;;;;;;11.23;6.90;;;;;;;24.36;57.53;99507.56;3369901;29;20097;-77
2021/08/16 03:35:37;;;;;;;9.00;6.63;;;;;;;24.41;57.44;99509.41;3371972;29;20045;-77
2021/08/16 03:37:17;;;;;;;8.93;6.87;;;;;;;24.45;57.14;99515.94;3372946;29;20115;-76
2021/08/16 03:38:58;;;;;;;12.30;8.10;;;;;;;24.49;56.91;99517.78;3370945;29;20040;-75
2021/08/16 03:40:41;;;;;;;12.02;8.50;;;;;;;24.45;57.21;99516.75;3372219;29;20056;-75
2021/08/16 03:42:22;;;;;;;7.55;6.70;;;;;;;24.46;56.68;99523.00;3371323;29;20040;-75
2021/08/16 03:44:03;;;;;;;11.20;8.73;;;;;;;24.35;57.13;99520.38;3374476;29;20049;-75
2021/08/16 03:45:46;;;;;;;11.88;8.25;;;;;;;24.32;57.32;99529.13;3370083;29;20161;-76
2021/08/16 03:47:26;;;;;;;9.07;7.60;;;;;;;24.27;57.02;99526.47;3369377;29;20095;-75
2021/08/16 03:49:07;;;;;;;10.60;7.57;;;;;;;24.26;57.44;99530.28;3369859;29;20041;-76
2021/08/16 03:50:48;;;;;;;9.23;8.33;;;;;;;24.25;57.94;99539.56;3377162;29;20041;-77
2021/08/16 03:52:29;;;;;;;12.23;7.40;;;;;;;24.23;57.76;99536.31;3373235;29;20047;-77
2021/08/16 03:54:10;;;;;;;8.07;7.03;;;;;;;24.26;57.72;99543.09;3375298;29;20064;-77
2021/08/16 03:55:50;;;;;;;12.87;8.33;;;;;;;24.27;57.33;99542.00;3376611;29;20049;-78
2021/08/16 03:57:31;;;;;;;12.23;7.90;;;;;;;24.30;57.77;99541.41;3373117;29;20132;-77
2021/08/16 03:59:12;;;;;;;9.37;7.00;;;;;;;24.33;58.02;99538.91;3375098;29;20451;-78
2021/08/16 04:00:52;;;;;;;13.83;7.90;;;;;;;24.38;57.78;99543.50;3369588;29;20037;-77
2021/08/16 04:02:33;;;;;;;9.33;7.83;;;;;;;24.41;57.43;99539.38;3369211;29;20453;-77
2021/08/16 04:04:14;;;;;;;13.13;7.23;;;;;;;24.42;57.51;99544.56;3371966;29;20055;-78
2021/08/16 04:05:55;;;;;;;11.93;7.15;;;;;;;24.44;57.30;99544.25;3373712;29;20056;-78
2021/08/16 04:07:36;;;;;;;9.37;7.63;;;;;;;24.45;57.22;99541.28;3376256;29;20079;-77
2021/08/16 04:09:16;;;;;;;11.43;7.10;;;;;;;24.47;56.91;99546.41;3375179;29;20052;-76
2021/08/16 04:10:57;;;;;;;8.77;7.00;;;;;;;24.49;56.88;99541.50;3371137;29;20037;-77
2021/08/16 04:12:38;;;;;;;7.37;6.47;;;;;;;24.54;56.82;99541.44;3368967;29;20052;-77
2021/08/16 04:14:19;;;;;;;9.47;7.47;;;;;;;24.56;57.03;99531.88;3372463;29;20095;-77
2021/08/16 04:16:00;;;;;;;8.50;6.73;;;;;;;24.59;56.89;99531.28;3370211;29;20044;-77
2021/08/16 04:17:41;;;;;;;8.32;6.53;;;;;;;24.65;56.50;99533.94;3375633;29;20048;-77
2021/08/16 04:19:22;;;;;;;12.02;7.20;;;;;;;24.69;56.46;99549.44;3373204;29;20053;-78
2021/08/16 04:21:03;;;;;;;11.23;7.60;;;;;;;24.72;56.47;99553.50;3369434;29;20080;-79
2021/08/16 04:22:44;;;;;;;8.27;7.23;;;;;;;24.72;56.69;99554.28;3367413;29;20317;-78
2021/08/16 04:24:25;;;;;;;12.38;6.75;;;;;;;24.74;56.73;99557.53;3369902;29;20044;-78
2021/08/16 04:26:05;;;;;;;10.33;7.73;;;;;;;24.77;56.18;99562.41;3368418;29;20081;-77
2021/08/16 04:27:48;;;;;;;12.57;8.07;;;;;;;24.76;56.32;99558.06;3367492;29;20135;-78
2021/08/16 04:29:29;;;;;;;11.75;7.28;;;;;;;24.79;56.25;99565.66;3366127;29;20047;-78
2021/08/16 04:31:10;;;;;;;9.23;6.97;;;;;;;24.83;56.06;99562.34;3373439;29;20079;-78
2021/08/16 04:32:51;;;;;;;16.27;7.57;;;;;;;24.88;56.21;99567.72;3370131;29;20535;-77
2021/08/16 04:34:32;;;;;;;10.20;6.87;;;;;;;24.95;56.18;99565.47;3373609;29;20052;-76
2021/08/16 04:36:12;;;;;;;8.20;7.17;;;;;;;24.99;55.90;99555.59;3375131;29;20079;-76
2021/08/16 04:37:53;;;;;;;12.77;7.60;;;;;;;25.03;55.32;99554.69;3376603;29;20064;-76
2021/08/16 04:39:34;;;;;;;11.83;7.70;;;;;;;25.06;55.16;99553.31;3372154;29;20064;-78
2021/08/16 04:41:14;;;;;;;11.73;7.10;;;;;;;25.06;55.58;99557.94;3370514;29;20063;-77
2021/08/16 04:42:55;;;;;;;12.10;7.13;;;;;;;25.11;55.67;99555.97;3368338;29;20060;-77
2021/08/16 04:44:36;;;;;;;12.97;8.43;;;;;;;25.13;55.47;99559.22;3373713;29;20418;-75
2021/08/16 04:46:17;;;;;;;9.93;6.67;;;;;;;25.13;55.21;99564.66;3375600;29;20048;-77
2021/08/16 04:47:57;;;;;;;12.37;8.07;;;;;;;25.10;55.51;99559.81;3375000;29;20095;-76
2021/08/16 04:49:38;;;;;;;11.57;8.50;;;;;;;24.99;55.30;99553.69;3375968;29;20044;-76
2021/08/16 04:51:19;;;;;;;12.07;8.10;;;;;;;24.90;55.50;99549.97;3374065;29;20033;-76
2021/08/16 04:52:59;;;;;;;14.03;7.73;;;;;;;24.84;55.22;99548.44;3372460;29;20099;-76
2021/08/16 04:54:41;;;;;;;;;;;;;;;24.87;55.06;99553.28;3373256;29;20512;-75
2021/08/16 04:56:22;;;;;;;10.82;8.52;;;;;;;24.72;55.20;99546.13;3366835;29;19927;-77
2021/08/16 04:58:02;;;;;;;14.13;8.23;;;;;;;24.66;55.20;99547.28;3371524;29;20073;-77
2021/08/16 04:59:43;;;;;;;12.37;8.57;;;;;;;24.60;55.36;99551.16;3373335;29;20699;-77
2021/08/16 05:01:24;;;;;;;11.60;8.60;;;;;;;24.57;55.54;99551.75;3373461;29;20127;-77
2021/08/16 05:03:04;;;;;;;15.90;7.60;;;;;;;24.57;55.23;99549.84;3374534;29;20045;-76
2021/08/16 05:04:46;;;;;;;12.57;8.17;;;;;;;24.58;55.03;99547.94;3363736;29;20068;-76
2021/08/16 05:06:32;;;;;;;17.02;9.57;;;;;;;24.60;55.37;99548.44;3368098;29;20047;-76
2021/08/16 05:08:13;;;;;;;13.43;8.55;;;;;;;24.59;55.36;99555.81;3374698;29;20044;-76
2021/08/16 05:09:53;;;;;;;17.80;8.23;;;;;;;24.58;54.48;99550.66;3376235;29;20056;-77
2021/08/16 05:11:34;;;;;;;15.63;9.53;;;;;;;24.57;54.92;99546.31;3365848;29;20297;-76
2021/08/16 05:13:15;;;;;;;14.77;8.57;;;;;;;24.57;54.96;99551.75;3364940;29;20584;-76
2021/08/16 05:14:55;;;;;;;14.13;8.57;;;;;;;24.62;54.65;99550.88;3370388;29;20048;-77
2021/08/16 05:16:36;;;;;;;12.80;8.70;;;;;;;24.66;54.93;99554.66;3371575;29;20044;-77
2021/08/16 05:18:17;;;;;;;11.63;9.03;;;;;;;24.69;54.95;99557.59;3373544;29;20147;-77
2021/08/16 05:19:59;;;;;;;15.53;8.90;;;;;;;24.74;55.40;99557.53;3367076;29;20508;-76
2021/08/16 05:21:39;;;;;;;15.95;8.60;;;;;;;24.76;54.87;99555.34;3367803;29;20425;-76
2021/08/16 05:23:20;;;;;;;11.60;7.07;;;;;;;24.84;53.54;99561.25;3373421;29;20064;-76
2021/08/16 05:25:01;;;;;;;10.37;8.13;;;;;;;24.88;53.08;99563.09;3369983;29;20055;-76
2021/08/16 05:26:42;;;;;;;11.93;8.40;;;;;;;24.91;52.99;99567.13;3370188;29;20040;-76
2021/08/16 05:28:24;;;;;;;10.93;8.70;;;;;;;24.90;53.00;99566.34;3374417;29;20513;-76
2021/08/16 05:30:05;;;;;;;16.85;8.68;;;;;;;24.89;53.36;99570.19;3368596;29;20045;-77
2021/08/16 05:31:46;;;;;;;10.38;6.75;;;;;;;24.95;52.97;99569.00;3369168;29;20043;-77
2021/08/16 05:33:26;;;;;;;12.67;8.10;;;;;;;25.06;52.46;99558.75;3354706;29;20452;-79
2021/08/16 05:35:08;;;;;;;12.40;7.70;;;;;;;25.20;52.19;99562.41;3363392;29;20485;-76
2021/08/16 05:36:49;;;;;;;8.85;6.78;;;;;;;25.33;51.51;99566.31;3369238;29;20064;-77
2021/08/16 05:38:30;;;;;;;10.90;7.43;;;;;;;25.48;50.77;99565.28;3368096;29;20057;-76
2021/08/16 05:40:12;;;;;;;12.32;7.15;;;;;;;25.61;50.50;99566.47;3369202;29;20037;-77
2021/08/16 05:41:52;;;;;;;15.30;8.07;;;;;;;25.70;50.80;99566.59;3369231;29;20123;-76
2021/08/16 05:43:33;;;;;;;18.00;8.80;;;;;;;25.72;51.50;99575.28;3370658;29;20063;-77
2021/08/16 05:45:13;;;;;;;15.77;7.90;;;;;;;25.64;51.95;99563.13;3373112;29;20036;-76
2021/08/16 05:46:54;;;;;;;13.60;8.37;;;;;;;25.65;51.96;99568.28;3376107;29;20075;-76
2021/08/16 05:48:35;;;;;;;12.73;8.00;;;;;;;25.67;52.22;99568.00;3370970;29;20535;-76
2021/08/16 05:50:16;;;;;;;16.60;6.87;;;;;;;25.72;51.99;99567.09;3374703;29;20072;-76
2021/08/16 05:51:57;;;;;;;12.17;6.60;;;;;;;25.75;52.39;99558.31;3377753;29;20089;-76
2021/08/16 05:53:37;;;;;;;15.68;7.90;;;;;;;25.83;52.00;99563.09;3370960;29;20135;-77
2021/08/16 05:55:18;;;;;;;13.53;8.10;;;;;;;25.88;52.09;99563.03;3374279;29;20088;-76
2021/08/16 05:56:59;;;;;;;12.53;7.67;;;;;;;25.96;52.48;99564.25;3377106;29;20044;-77
2021/08/16 05:58:40;;;;;;;9.77;7.27;;;;;;;26.04;52.09;99567.09;3370498;29;20044;-76
2021/08/16 06:00:23;;;;;;;8.60;6.70;;;;;;;26.16;51.43;99571.28;3374708;29;20487;-76
2021/08/16 06:02:04;;;;;;;12.23;6.38;;;;;;;26.26;51.29;99562.91;3375116;29;20052;-75
2021/08/16 06:03:45;;;;;;;8.77;7.00;;;;;;;26.30;51.47;99563.91;3371804;29;20048;-76
2021/08/16 06:05:25;;;;;;;12.33;7.70;;;;;;;26.34;51.47;99559.47;3368864;29;20060;-77
2021/08/16 06:07:06;;;;;;;14.53;8.23;;;;;;;26.41;51.02;99567.25;3373778;29;20041;-77
2021/08/16 06:08:47;;;;;;;10.40;6.67;;;;;;;26.46;50.98;99557.06;3373341;29;20143;-76
2021/08/16 06:10:27;;;;;;;10.40;8.03;;;;;;;26.60;50.59;99569.94;3373429;29;20041;-77
2021/08/16 06:12:08;;;;;;;12.50;7.53;;;;;;;26.72;50.68;99570.25;3373095;29;20460;-76
2021/08/16 06:13:50;;;;;;;10.33;7.30;;;;;;;26.86;50.41;99573.75;3371432;29;20461;-77
2021/08/16 06:15:31;;;;;;;10.35;7.78;;;;;;;27.00;50.39;99571.00;3366245;29;20088;-76
2021/08/16 06:17:11;;;;;;;8.93;6.75;;;;;;;27.12;50.55;99565.81;3370981;29;20045;-78
2021/08/16 06:18:55;;;;;;;12.33;6.60;;;;;;;27.30;49.96;99566.00;3372706;29;20047;-75
2021/08/16 06:20:39;;;;;;;11.40;6.82;;;;;;;27.48;49.85;99562.28;3370919;29;20049;-75
2021/08/16 06:22:20;;;;;;;9.20;6.65;;;;;;;27.70;49.11;99566.13;3370260;29;20088;-76
2021/08/16 06:24:01;;;;;;;9.90;7.57;;;;;;;27.90;48.77;99571.13;3370900;29;20429;-76
2021/08/16 06:25:42;;;;;;;10.77;6.93;;;;;;;28.07;48.55;99567.72;3371465;29;20135;-76
2021/08/16 06:27:23;;;;;;;10.90;6.60;;;;;;;28.22;47.95;99577.47;3371092;29;20057;-76
2021/08/16 06:29:05;;;;;;;10.55;6.93;;;;;;;28.39;47.61;99576.72;3370669;29;20128;-77
2021/08/16 06:30:45;;;;;;;14.18;6.95;;;;;;;28.50;47.06;99578.09;3368318;29;20059;-76
2021/08/16 06:32:26;;;;;;;26.40;6.87;;;;;;;28.60;47.01;99571.50;3369981;29;20135;-76
2021/08/16 06:34:09;;;;;;;15.97;7.40;;;;;;;28.70;46.32;99582.97;3370888;29;20044;-75
2021/08/16 06:35:53;;;;;;;7.65;6.20;;;;;;;28.78;46.42;99591.56;3370864;29;20301;-73
2021/08/16 06:37:34;;;;;;;9.15;6.22;;;;;;;28.81;46.06;99582.69;3370131;29;20589;-74
2021/08/16 06:39:27;;;;;;;11.80;7.40;;;;;;;28.82;45.54;99589.81;3368568;29;20041;-76
2021/08/16 06:41:07;;;;;;;11.05;7.25;;;;;;;28.80;45.37;99586.56;3373039;29;20300;-76
2021/08/16 06:42:48;;;;;;;10.30;7.20;;;;;;;28.80;45.20;99587.38;3368464;29;20088;-75
2021/08/16 06:44:29;;;;;;;14.57;6.97;;;;;;;28.82;45.21;99589.81;3370417;29;20390;-74
2021/08/16 06:46:10;;;;;;;10.30;6.80;;;;;;;28.90;45.25;99589.03;3367898;29;20044;-74
2021/08/16 06:47:52;;;;;;;9.15;6.60;;;;;;;29.04;45.07;99588.88;3369041;29;20041;-74
2021/08/16 06:49:33;;;;;;;9.93;6.63;;;;;;;29.19;44.49;99587.66;3367126;29;20148;-77
2021/08/16 06:51:14;;;;;;;9.23;6.40;;;;;;;29.28;44.22;99591.22;3370150;29;20147;-77
2021/08/16 06:52:54;;;;;;;14.50;7.50;;;;;;;29.37;44.04;99588.47;3371277;29;20079;-76
2021/08/16 06:54:35;;;;;;;9.10;6.07;;;;;;;29.47;44.08;99588.94;3351421;29;20053;-77
2021/08/16 06:56:16;;;;;;;12.97;5.73;;;;;;;29.61;43.89;99590.72;3372135;29;20297;-78
2021/08/16 06:57:57;;;;;;;11.10;6.47;;;;;;;29.80;43.26;99588.47;3371421;29;20044;-75
2021/08/16 06:59:37;;;;;;;8.37;5.47;;;;;;;29.96;42.85;99599.75;3372291;29;20053;-76
2021/08/16 07:01:25;;;;;;;10.00;6.50;;;;;;;30.08;42.36;99590.84;3370441;29;20700;-75
2021/08/16 07:03:06;;;;;;;9.13;5.57;;;;;;;30.21;42.31;99590.66;3375456;29;20048;-74
2021/08/16 07:04:49;;;;;;;6.75;5.72;;;;;;;30.29;41.16;99591.00;3379496;29;20390;-82
2021/08/16 07:06:30;;;;;;;10.45;6.20;;;;;;;30.33;41.04;99589.97;3378101;29;20063;-78
2021/08/16 07:08:12;;;;;;;13.10;6.07;;;;;;;30.40;41.36;99587.53;3377996;29;20432;-79
2021/08/16 07:09:53;;;;;;;14.00;5.57;;;;;;;30.49;41.46;99583.94;3377400;29;20328;-75
2021/08/16 07:11:34;;;;;;;13.23;5.43;;;;;;;30.62;41.25;99582.94;3378327;29;20055;-80
2021/08/16 07:13:16;;;;;;;9.63;5.40;;;;;;;30.71;41.41;99589.19;3377822;29;20061;-77
2021/08/16 07:14:57;;;;;;;11.15;5.50;;;;;;;30.81;41.16;99586.06;3378624;29;20596;-77
2021/08/16 07:16:38;;;;;;;14.60;6.50;;;;;;;30.92;40.17;99591.19;3377527;29;20043;-75
2021/08/16 07:18:19;;;;;;;15.23;6.30;;;;;;;31.04;41.44;99589.34;3377034;29;20051;-77
2021/08/16 07:19:59;;;;;;;16.37;5.70;;;;;;;31.21;41.25;99593.09;3378254;29;20094;-77
2021/08/16 07:21:40;;;;;;;17.40;6.50;;;;;;;31.35;40.53;99592.84;3367575;29;20045;-74
2021/08/16 07:23:25;;;;;;;10.73;5.53;;;;;;;31.48;40.28;99591.81;3375338;29;20048;-74
2021/08/16 07:25:06;;;;;;;12.60;5.75;;;;;;;31.62;39.29;99603.34;3377963;29;20143;-76
2021/08/16 07:26:47;;;;;;;14.32;5.95;;;;;;;31.71;39.67;99597.75;3377480;29;20464;-76
2021/08/16 07:28:30;;;;;;;14.07;6.40;;;;;;;31.81;39.40;99602.06;3378022;29;20049;-75
2021/08/16 07:30:11;;;;;;;14.43;6.32;;;;;;;31.93;38.07;99596.59;3376995;29;20052;-74
2021/08/16 07:31:52;;;;;;;12.50;6.38;;;;;;;32.02;39.65;99596.50;3378240;29;20060;-75
2021/08/16 07:33:33;;;;;;;8.73;5.68;;;;;;;32.08;38.31;99597.91;3376854;29;20072;-73
2021/08/16 07:35:14;;;;;;;10.00;5.15;;;;;;;32.22;38.00;99590.13;3378323;29;20167;-75
2021/08/16 07:36:55;;;;;;;15.65;5.38;;;;;;;32.38;38.44;99599.34;3377245;29;20045;-74
2021/08/16 07:38:35;;;;;;;10.15;5.70;;;;;;;32.53;38.54;99597.91;3377599;29;20063;-75
2021/08/16 07:40:17;;;;;;;7.17;5.50;;;;;;;32.68;38.66;99593.63;3377610;29;20095;-73
2021/08/16 07:41:58;;;;;;;10.30;5.03;;;;;;;32.80;37.76;99595.59;3377951;29;20160;-74
2021/08/16 07:43:39;;;;;;;7.40;5.17;;;;;;;32.91;37.32;99590.41;3376965;29;20044;-75
2021/08/16 07:45:20;;;;;;;;;;;;;;;33.07;37.79;99598.81;3374775;29;20390;-74
2021/08/16 07:47:01;;;;;;;6.27;4.90;;;;;;;33.04;37.65;99588.44;3377732;29;19923;-74
2021/08/16 07:48:41;;;;;;;9.05;4.80;;;;;;;33.09;36.63;99589.00;3377882;29;20500;-75
2021/08/16 07:50:23;;;;;;;10.75;5.03;;;;;;;33.14;35.64;99588.78;3377880;29;20143;-75
2021/08/16 07:52:04;;;;;;;12.52;5.38;;;;;;;33.26;35.77;99595.44;3375605;29;20115;-75